sensor_id;sensor_type;location;lat;lon;timestamp;P1;durP1;ratioP1;P2;durP2;ratioP2
31716;SDS011;18301;51.076;17.046;2022-09-12T00:02:06;7.65;;;5.78;;
31716;SDS011;18301;51.076;17.046;2022-09-12T00:07:08;7.25;;;5.72;;
31716;SDS011;18301;51.076;17.046;2022-09-12T00:12:10;8.45;;;6.05;;
31716;SDS011;18301;51.076;17.046;2022-09-12T00:17:11;7.57;;;5.85;;
31716;SDS011;18301;51.076;17.046;2022-09-12T00:22:13;7.43;;;5.30;;
31716;SDS011;18301;51.076;17.046;2022-09-12T00:27:14;9.77;;;5.70;;
31716;SDS011;18301;51.076;17.046;2022-09-12T00:32:16;7.45;;;5.03;;
31716;SDS011;18301;51.076;17.046;2022-09-12T00:37:17;8.80;;;5.43;;
31716;SDS011;18301;51.076;17.046;2022-09-12T00:42:19;7.00;;;4.85;;
31716;SDS011;18301;51.076;17.046;2022-09-12T00:47:29;7.50;;;5.03;;
31716;SDS011;18301;51.076;17.046;2022-09-12T00:52:34;11.07;;;5.28;;
31716;SDS011;18301;51.076;17.046;2022-09-12T00:57:44;6.30;;;4.70;;
31716;SDS011;18301;51.076;17.046;2022-09-12T01:02:53;9.38;;;4.95;;
31716;SDS011;18301;51.076;17.046;2022-09-12T01:07:59;6.75;;;4.55;;
31716;SDS011;18301;51.076;17.046;2022-09-12T01:13:04;5.90;;;4.35;;
31716;SDS011;18301;51.076;17.046;2022-09-12T01:39:19;6.70;;;4.47;;
31716;SDS011;18301;51.076;17.046;2022-09-12T01:49:40;5.55;;;4.65;;
31716;SDS011;18301;51.076;17.046;2022-09-12T01:54:54;8.95;;;4.80;;
31716;SDS011;18301;51.076;17.046;2022-09-12T02:00:05;5.93;;;4.45;;
31716;SDS011;18301;51.076;17.046;2022-09-12T02:05:12;5.33;;;4.10;;
31716;SDS011;18301;51.076;17.046;2022-09-12T02:10:19;5.90;;;4.37;;
31716;SDS011;18301;51.076;17.046;2022-09-12T02:15:31;7.80;;;4.68;;
31716;SDS011;18301;51.076;17.046;2022-09-12T02:20:38;5.90;;;4.18;;
31716;SDS011;18301;51.076;17.046;2022-09-12T02:25:51;5.78;;;4.25;;
31716;SDS011;18301;51.076;17.046;2022-09-12T02:36:13;7.68;;;4.75;;
31716;SDS011;18301;51.076;17.046;2022-09-12T02:41:17;9.80;;;5.28;;
31716;SDS011;18301;51.076;17.046;2022-09-12T02:46:25;7.15;;;4.25;;
31716;SDS011;18301;51.076;17.046;2022-09-12T02:51:31;4.68;;;4.10;;
31716;SDS011;18301;51.076;17.046;2022-09-12T02:56:33;5.25;;;4.30;;
31716;SDS011;18301;51.076;17.046;2022-09-12T03:06:44;7.32;;;4.10;;
31716;SDS011;18301;51.076;17.046;2022-09-12T03:27:57;6.40;;;4.40;;
31716;SDS011;18301;51.076;17.046;2022-09-12T03:33:10;6.68;;;4.35;;
31716;SDS011;18301;51.076;17.046;2022-09-12T03:38:17;6.72;;;3.90;;
31716;SDS011;18301;51.076;17.046;2022-09-12T03:43:19;6.15;;;4.25;;
31716;SDS011;18301;51.076;17.046;2022-09-12T03:48:21;7.13;;;4.60;;
31716;SDS011;18301;51.076;17.046;2022-09-12T03:53:22;6.80;;;4.57;;
31716;SDS011;18301;51.076;17.046;2022-09-12T03:58:28;7.20;;;4.32;;
31716;SDS011;18301;51.076;17.046;2022-09-12T04:03:30;7.82;;;5.10;;
31716;SDS011;18301;51.076;17.046;2022-09-12T04:08:33;7.28;;;5.55;;
31716;SDS011;18301;51.076;17.046;2022-09-12T04:13:36;9.77;;;4.65;;
31716;SDS011;18301;51.076;17.046;2022-09-12T04:18:38;8.40;;;4.57;;
31716;SDS011;18301;51.076;17.046;2022-09-12T04:23:40;6.05;;;4.68;;
31716;SDS011;18301;51.076;17.046;2022-09-12T04:28:42;7.03;;;4.38;;
31716;SDS011;18301;51.076;17.046;2022-09-12T04:33:45;5.78;;;4.60;;
31716;SDS011;18301;51.076;17.046;2022-09-12T04:38:47;6.63;;;4.55;;
31716;SDS011;18301;51.076;17.046;2022-09-12T04:43:59;7.88;;;4.65;;
31716;SDS011;18301;51.076;17.046;2022-09-12T04:49:02;7.70;;;4.35;;
31716;SDS011;18301;51.076;17.046;2022-09-12T04:54:05;5.70;;;4.35;;
31716;SDS011;18301;51.076;17.046;2022-09-12T04:59:09;8.60;;;4.90;;
31716;SDS011;18301;51.076;17.046;2022-09-12T05:04:12;6.05;;;4.68;;
31716;SDS011;18301;51.076;17.046;2022-09-12T05:09:14;7.38;;;5.18;;
31716;SDS011;18301;51.076;17.046;2022-09-12T05:14:16;11.70;;;5.18;;
31716;SDS011;18301;51.076;17.046;2022-09-12T05:19:18;10.00;;;5.43;;
31716;SDS011;18301;51.076;17.046;2022-09-12T05:24:19;9.55;;;5.88;;
31716;SDS011;18301;51.076;17.046;2022-09-12T05:29:21;10.63;;;5.70;;
31716;SDS011;18301;51.076;17.046;2022-09-12T05:34:23;9.80;;;5.88;;
31716;SDS011;18301;51.076;17.046;2022-09-12T05:39:24;6.90;;;4.88;;
31716;SDS011;18301;51.076;17.046;2022-09-12T05:44:26;10.25;;;5.30;;
31716;SDS011;18301;51.076;17.046;2022-09-12T05:49:28;9.43;;;5.13;;
31716;SDS011;18301;51.076;17.046;2022-09-12T05:54:30;8.73;;;5.72;;
31716;SDS011;18301;51.076;17.046;2022-09-12T05:59:32;10.50;;;5.00;;
31716;SDS011;18301;51.076;17.046;2022-09-12T06:04:33;11.60;;;5.65;;
31716;SDS011;18301;51.076;17.046;2022-09-12T06:09:35;8.75;;;5.07;;
31716;SDS011;18301;51.076;17.046;2022-09-12T06:14:36;7.68;;;4.95;;
31716;SDS011;18301;51.076;17.046;2022-09-12T06:19:39;6.70;;;5.30;;
31716;SDS011;18301;51.076;17.046;2022-09-12T06:24:40;5.78;;;4.55;;
31716;SDS011;18301;51.076;17.046;2022-09-12T06:29:42;4.85;;;4.13;;
31716;SDS011;18301;51.076;17.046;2022-09-12T06:34:43;6.93;;;3.80;;
31716;SDS011;18301;51.076;17.046;2022-09-12T06:39:47;6.68;;;4.13;;
31716;SDS011;18301;51.076;17.046;2022-09-12T06:44:49;7.63;;;4.22;;
31716;SDS011;18301;51.076;17.046;2022-09-12T06:49:51;8.07;;;4.10;;
31716;SDS011;18301;51.076;17.046;2022-09-12T06:54:52;6.72;;;3.53;;
31716;SDS011;18301;51.076;17.046;2022-09-12T06:59:54;4.15;;;3.10;;
31716;SDS011;18301;51.076;17.046;2022-09-12T07:04:55;6.05;;;3.33;;
31716;SDS011;18301;51.076;17.046;2022-09-12T07:09:57;4.47;;;3.10;;
31716;SDS011;18301;51.076;17.046;2022-09-12T07:14:58;4.47;;;2.33;;
31716;SDS011;18301;51.076;17.046;2022-09-12T07:20:01;7.22;;;2.90;;
31716;SDS011;18301;51.076;17.046;2022-09-12T07:25:03;4.53;;;2.92;;
31716;SDS011;18301;51.076;17.046;2022-09-12T07:30:05;9.88;;;3.30;;
31716;SDS011;18301;51.076;17.046;2022-09-12T07:35:08;5.53;;;2.85;;
31716;SDS011;18301;51.076;17.046;2022-09-12T07:40:09;4.32;;;3.10;;
31716;SDS011;18301;51.076;17.046;2022-09-12T07:45:11;8.85;;;3.03;;
31716;SDS011;18301;51.076;17.046;2022-09-12T07:50:13;4.32;;;2.47;;
31716;SDS011;18301;51.076;17.046;2022-09-12T07:55:15;5.05;;;2.60;;
31716;SDS011;18301;51.076;17.046;2022-09-12T08:00:17;4.00;;;2.53;;
31716;SDS011;18301;51.076;17.046;2022-09-12T08:05:19;3.40;;;2.72;;
31716;SDS011;18301;51.076;17.046;2022-09-12T08:10:21;6.28;;;3.03;;
31716;SDS011;18301;51.076;17.046;2022-09-12T08:15:22;4.45;;;2.80;;
31716;SDS011;18301;51.076;17.046;2022-09-12T08:20:25;6.20;;;2.72;;
31716;SDS011;18301;51.076;17.046;2022-09-12T08:25:28;4.68;;;2.97;;
31716;SDS011;18301;51.076;17.046;2022-09-12T08:30:30;4.85;;;2.75;;
31716;SDS011;18301;51.076;17.046;2022-09-12T08:35:32;4.55;;;2.70;;
31716;SDS011;18301;51.076;17.046;2022-09-12T08:40:39;4.15;;;2.78;;
31716;SDS011;18301;51.076;17.046;2022-09-12T08:45:57;4.27;;;2.60;;
31716;SDS011;18301;51.076;17.046;2022-09-12T08:51:09;3.47;;;2.50;;
31716;SDS011;18301;51.076;17.046;2022-09-12T08:56:14;4.78;;;2.60;;
31716;SDS011;18301;51.076;17.046;2022-09-12T09:16:43;3.03;;;2.58;;
31716;SDS011;18301;51.076;17.046;2022-09-12T09:21:49;5.43;;;2.70;;
31716;SDS011;18301;51.076;17.046;2022-09-12T09:26:59;5.97;;;2.70;;
31716;SDS011;18301;51.076;17.046;2022-09-12T09:32:36;6.53;;;3.22;;
31716;SDS011;18301;51.076;17.046;2022-09-12T09:37:42;4.13;;;2.85;;
31716;SDS011;18301;51.076;17.046;2022-09-12T09:43:20;3.95;;;3.45;;
31716;SDS011;18301;51.076;17.046;2022-09-12T09:48:26;4.60;;;3.10;;
31716;SDS011;18301;51.076;17.046;2022-09-12T09:53:33;4.18;;;3.28;;
31716;SDS011;18301;51.076;17.046;2022-09-12T09:58:46;4.03;;;3.20;;
31716;SDS011;18301;51.076;17.046;2022-09-12T10:08:51;4.13;;;3.10;;
31716;SDS011;18301;51.076;17.046;2022-09-12T10:19:38;4.85;;;2.60;;
31716;SDS011;18301;51.076;17.046;2022-09-12T10:24:40;6.50;;;2.42;;
31716;SDS011;18301;51.076;17.046;2022-09-12T10:30:14;4.45;;;2.90;;
31716;SDS011;18301;51.076;17.046;2022-09-12T10:35:21;5.45;;;2.80;;
31716;SDS011;18301;51.076;17.046;2022-09-12T10:40:26;3.60;;;2.47;;
31716;SDS011;18301;51.076;17.046;2022-09-12T10:45:33;3.72;;;2.38;;
31716;SDS011;18301;51.076;17.046;2022-09-12T10:50:42;3.55;;;2.35;;
31716;SDS011;18301;51.076;17.046;2022-09-12T11:01:24;3.83;;;2.47;;
31716;SDS011;18301;51.076;17.046;2022-09-12T11:33:40;6.18;;;2.70;;
31716;SDS011;18301;51.076;17.046;2022-09-12T11:38:51;3.70;;;2.17;;
31716;SDS011;18301;51.076;17.046;2022-09-12T11:44:13;3.67;;;2.38;;
31716;SDS011;18301;51.076;17.046;2022-09-12T12:05:28;4.05;;;2.25;;
31716;SDS011;18301;51.076;17.046;2022-09-12T12:15:47;3.65;;;2.20;;
31716;SDS011;18301;51.076;17.046;2022-09-12T12:20:53;4.55;;;2.60;;
31716;SDS011;18301;51.076;17.046;2022-09-12T12:26:00;5.07;;;2.50;;
31716;SDS011;18301;51.076;17.046;2022-09-12T12:31:03;4.65;;;2.50;;
31716;SDS011;18301;51.076;17.046;2022-09-12T12:36:09;3.55;;;2.20;;
31716;SDS011;18301;51.076;17.046;2022-09-12T12:46:36;3.83;;;2.22;;
31716;SDS011;18301;51.076;17.046;2022-09-12T12:56:43;4.22;;;2.38;;
31716;SDS011;18301;51.076;17.046;2022-09-12T13:01:48;3.17;;;2.30;;
31716;SDS011;18301;51.076;17.046;2022-09-12T13:12:09;4.15;;;2.25;;
31716;SDS011;18301;51.076;17.046;2022-09-12T13:17:19;4.10;;;2.33;;
31716;SDS011;18301;51.076;17.046;2022-09-12T13:22:44;6.18;;;2.75;;
31716;SDS011;18301;51.076;17.046;2022-09-12T13:33:20;6.50;;;2.60;;
31716;SDS011;18301;51.076;17.046;2022-09-12T13:43:55;4.60;;;1.85;;
31716;SDS011;18301;51.076;17.046;2022-09-12T13:48:57;4.40;;;2.20;;
31716;SDS011;18301;51.076;17.046;2022-09-12T13:54:01;4.60;;;2.22;;
31716;SDS011;18301;51.076;17.046;2022-09-12T13:59:09;2.70;;;2.40;;
31716;SDS011;18301;51.076;17.046;2022-09-12T14:09:37;3.40;;;2.25;;
31716;SDS011;18301;51.076;17.046;2022-09-12T14:14:41;3.97;;;2.45;;
31716;SDS011;18301;51.076;17.046;2022-09-12T14:19:44;2.97;;;2.25;;
31716;SDS011;18301;51.076;17.046;2022-09-12T14:24:47;3.22;;;2.45;;
31716;SDS011;18301;51.076;17.046;2022-09-12T14:29:55;2.80;;;2.30;;
31716;SDS011;18301;51.076;17.046;2022-09-12T14:35:05;3.42;;;2.40;;
31716;SDS011;18301;51.076;17.046;2022-09-12T14:40:19;4.63;;;2.50;;
31716;SDS011;18301;51.076;17.046;2022-09-12T14:50:27;3.53;;;2.53;;
31716;SDS011;18301;51.076;17.046;2022-09-12T14:55:40;4.05;;;2.75;;
31716;SDS011;18301;51.076;17.046;2022-09-12T15:00:55;3.55;;;2.65;;
31716;SDS011;18301;51.076;17.046;2022-09-12T15:05:59;3.85;;;2.67;;
31716;SDS011;18301;51.076;17.046;2022-09-12T15:11:04;5.45;;;2.67;;
31716;SDS011;18301;51.076;17.046;2022-09-12T15:16:08;2.47;;;2.13;;
31716;SDS011;18301;51.076;17.046;2022-09-12T15:21:14;5.00;;;2.20;;
31716;SDS011;18301;51.076;17.046;2022-09-12T15:26:18;3.65;;;2.80;;
31716;SDS011;18301;51.076;17.046;2022-09-12T15:31:28;3.33;;;2.75;;
31716;SDS011;18301;51.076;17.046;2022-09-12T15:36:31;3.83;;;2.80;;
31716;SDS011;18301;51.076;17.046;2022-09-12T15:41:34;2.65;;;2.40;;
31716;SDS011;18301;51.076;17.046;2022-09-12T15:46:37;3.55;;;2.63;;
31716;SDS011;18301;51.076;17.046;2022-09-12T15:51:39;4.28;;;2.47;;
31716;SDS011;18301;51.076;17.046;2022-09-12T15:56:40;3.75;;;2.85;;
31716;SDS011;18301;51.076;17.046;2022-09-12T16:01:42;3.20;;;2.50;;
31716;SDS011;18301;51.076;17.046;2022-09-12T16:06:44;5.57;;;2.80;;
31716;SDS011;18301;51.076;17.046;2022-09-12T16:11:45;4.35;;;2.90;;
31716;SDS011;18301;51.076;17.046;2022-09-12T16:16:51;5.13;;;3.53;;
31716;SDS011;18301;51.076;17.046;2022-09-12T16:21:54;4.35;;;3.20;;
31716;SDS011;18301;51.076;17.046;2022-09-12T16:26:56;5.22;;;3.20;;
31716;SDS011;18301;51.076;17.046;2022-09-12T16:32:01;4.60;;;3.33;;
31716;SDS011;18301;51.076;17.046;2022-09-12T16:37:03;5.85;;;3.45;;
31716;SDS011;18301;51.076;17.046;2022-09-12T16:42:05;5.65;;;3.53;;
31716;SDS011;18301;51.076;17.046;2022-09-12T16:47:07;6.28;;;3.40;;
31716;SDS011;18301;51.076;17.046;2022-09-12T16:52:09;4.80;;;3.38;;
31716;SDS011;18301;51.076;17.046;2022-09-12T16:57:11;7.60;;;3.50;;
31716;SDS011;18301;51.076;17.046;2022-09-12T17:02:13;5.13;;;3.60;;
31716;SDS011;18301;51.076;17.046;2022-09-12T17:07:15;8.10;;;3.63;;
31716;SDS011;18301;51.076;17.046;2022-09-12T17:12:16;6.32;;;4.00;;
31716;SDS011;18301;51.076;17.046;2022-09-12T17:17:18;5.82;;;3.80;;
31716;SDS011;18301;51.076;17.046;2022-09-12T17:22:19;5.88;;;4.20;;
31716;SDS011;18301;51.076;17.046;2022-09-12T17:27:21;6.35;;;4.47;;
31716;SDS011;18301;51.076;17.046;2022-09-12T17:32:22;6.70;;;3.90;;
31716;SDS011;18301;51.076;17.046;2022-09-12T17:37:24;6.55;;;3.92;;
31716;SDS011;18301;51.076;17.046;2022-09-12T17:42:26;6.10;;;4.55;;
31716;SDS011;18301;51.076;17.046;2022-09-12T17:47:27;4.47;;;3.75;;
31716;SDS011;18301;51.076;17.046;2022-09-12T17:52:29;5.22;;;4.55;;
31716;SDS011;18301;51.076;17.046;2022-09-12T17:57:31;9.82;;;4.40;;
31716;SDS011;18301;51.076;17.046;2022-09-12T18:02:33;7.82;;;4.63;;
31716;SDS011;18301;51.076;17.046;2022-09-12T18:07:35;8.88;;;4.55;;
31716;SDS011;18301;51.076;17.046;2022-09-12T18:12:42;7.15;;;4.43;;
31716;SDS011;18301;51.076;17.046;2022-09-12T18:17:43;7.63;;;4.43;;
31716;SDS011;18301;51.076;17.046;2022-09-12T18:22:47;5.53;;;4.15;;
31716;SDS011;18301;51.076;17.046;2022-09-12T18:27:50;7.97;;;5.35;;
31716;SDS011;18301;51.076;17.046;2022-09-12T18:32:51;10.23;;;5.25;;
31716;SDS011;18301;51.076;17.046;2022-09-12T18:37:53;7.82;;;5.65;;
31716;SDS011;18301;51.076;17.046;2022-09-12T18:42:55;8.32;;;5.50;;
31716;SDS011;18301;51.076;17.046;2022-09-12T18:47:56;9.70;;;5.47;;
31716;SDS011;18301;51.076;17.046;2022-09-12T18:52:58;8.98;;;5.55;;
31716;SDS011;18301;51.076;17.046;2022-09-12T18:58:00;9.50;;;5.95;;
31716;SDS011;18301;51.076;17.046;2022-09-12T19:03:01;10.55;;;5.63;;
31716;SDS011;18301;51.076;17.046;2022-09-12T19:08:03;8.93;;;6.43;;
31716;SDS011;18301;51.076;17.046;2022-09-12T19:13:05;8.27;;;6.20;;
31716;SDS011;18301;51.076;17.046;2022-09-12T19:18:07;12.50;;;6.38;;
31716;SDS011;18301;51.076;17.046;2022-09-12T19:23:09;11.02;;;6.05;;
31716;SDS011;18301;51.076;17.046;2022-09-12T19:28:11;9.00;;;6.38;;
31716;SDS011;18301;51.076;17.046;2022-09-12T19:33:12;9.18;;;6.28;;
31716;SDS011;18301;51.076;17.046;2022-09-12T19:38:14;11.05;;;6.45;;
31716;SDS011;18301;51.076;17.046;2022-09-12T19:43:16;8.82;;;5.75;;
31716;SDS011;18301;51.076;17.046;2022-09-12T19:48:18;11.88;;;6.85;;
31716;SDS011;18301;51.076;17.046;2022-09-12T19:53:20;9.75;;;6.40;;
31716;SDS011;18301;51.076;17.046;2022-09-12T19:58:21;12.50;;;7.05;;
31716;SDS011;18301;51.076;17.046;2022-09-12T20:03:23;11.00;;;6.57;;
31716;SDS011;18301;51.076;17.046;2022-09-12T20:08:25;9.70;;;6.32;;
31716;SDS011;18301;51.076;17.046;2022-09-12T20:13:27;9.63;;;6.50;;
31716;SDS011;18301;51.076;17.046;2022-09-12T20:18:28;11.80;;;6.70;;
31716;SDS011;18301;51.076;17.046;2022-09-12T20:23:30;9.85;;;6.70;;
31716;SDS011;18301;51.076;17.046;2022-09-12T20:28:31;12.57;;;6.68;;
31716;SDS011;18301;51.076;17.046;2022-09-12T20:33:33;11.23;;;6.57;;
31716;SDS011;18301;51.076;17.046;2022-09-12T20:38:35;11.50;;;6.68;;
31716;SDS011;18301;51.076;17.046;2022-09-12T20:43:37;13.02;;;6.63;;
31716;SDS011;18301;51.076;17.046;2022-09-12T20:48:39;11.73;;;6.70;;
31716;SDS011;18301;51.076;17.046;2022-09-12T20:53:41;11.60;;;7.05;;
31716;SDS011;18301;51.076;17.046;2022-09-12T20:58:42;13.52;;;7.25;;
31716;SDS011;18301;51.076;17.046;2022-09-12T21:03:45;10.32;;;7.43;;
31716;SDS011;18301;51.076;17.046;2022-09-12T21:08:47;10.15;;;7.07;;
31716;SDS011;18301;51.076;17.046;2022-09-12T21:13:50;8.57;;;6.75;;
31716;SDS011;18301;51.076;17.046;2022-09-12T21:18:58;11.15;;;6.95;;
31716;SDS011;18301;51.076;17.046;2022-09-12T21:24:00;11.45;;;6.82;;
31716;SDS011;18301;51.076;17.046;2022-09-12T21:29:03;12.85;;;6.95;;
31716;SDS011;18301;51.076;17.046;2022-09-12T21:34:04;13.90;;;6.57;;
31716;SDS011;18301;51.076;17.046;2022-09-12T21:39:06;9.57;;;6.28;;
31716;SDS011;18301;51.076;17.046;2022-09-12T21:44:07;9.20;;;6.10;;
31716;SDS011;18301;51.076;17.046;2022-09-12T21:49:09;13.73;;;6.82;;
31716;SDS011;18301;51.076;17.046;2022-09-12T21:54:10;11.30;;;6.60;;
31716;SDS011;18301;51.076;17.046;2022-09-12T21:59:12;13.65;;;8.65;;
31716;SDS011;18301;51.076;17.046;2022-09-12T22:04:14;11.45;;;7.68;;
31716;SDS011;18301;51.076;17.046;2022-09-12T22:09:15;12.90;;;8.40;;
31716;SDS011;18301;51.076;17.046;2022-09-12T22:14:17;11.98;;;8.00;;
31716;SDS011;18301;51.076;17.046;2022-09-12T22:19:19;13.55;;;8.07;;
31716;SDS011;18301;51.076;17.046;2022-09-12T22:24:20;13.50;;;8.57;;
31716;SDS011;18301;51.076;17.046;2022-09-12T22:29:28;15.38;;;8.73;;
31716;SDS011;18301;51.076;17.046;2022-09-12T22:34:29;13.68;;;8.13;;
31716;SDS011;18301;51.076;17.046;2022-09-12T22:39:31;13.25;;;9.02;;
31716;SDS011;18301;51.076;17.046;2022-09-12T22:44:33;16.73;;;9.00;;
31716;SDS011;18301;51.076;17.046;2022-09-12T22:49:34;14.93;;;8.07;;
31716;SDS011;18301;51.076;17.046;2022-09-12T22:54:36;12.45;;;8.40;;
31716;SDS011;18301;51.076;17.046;2022-09-12T22:59:37;13.68;;;8.95;;
31716;SDS011;18301;51.076;17.046;2022-09-12T23:04:39;15.13;;;9.13;;
31716;SDS011;18301;51.076;17.046;2022-09-12T23:09:41;15.48;;;9.20;;
31716;SDS011;18301;51.076;17.046;2022-09-12T23:14:42;13.05;;;9.00;;
31716;SDS011;18301;51.076;17.046;2022-09-12T23:19:44;16.10;;;9.18;;
31716;SDS011;18301;51.076;17.046;2022-09-12T23:24:45;12.50;;;7.97;;
31716;SDS011;18301;51.076;17.046;2022-09-12T23:29:47;13.75;;;8.52;;
31716;SDS011;18301;51.076;17.046;2022-09-12T23:34:52;11.82;;;8.30;;
31716;SDS011;18301;51.076;17.046;2022-09-12T23:39:54;14.25;;;8.18;;
31716;SDS011;18301;51.076;17.046;2022-09-12T23:44:56;12.95;;;8.10;;
31716;SDS011;18301;51.076;17.046;2022-09-12T23:49:57;12.05;;;8.38;;
31716;SDS011;18301;51.076;17.046;2022-09-12T23:54:59;11.00;;;7.95;;
